createdAt,value
2022-12-27T00:01:34.089Z,17.37
2022-12-27T00:04:01.330Z,17.83
2022-12-27T00:06:28.967Z,17.27
2022-12-27T00:08:57.192Z,17.60
2022-12-27T00:11:26.850Z,18.13
2022-12-27T00:13:53.791Z,16.53
2022-12-27T00:16:21.528Z,13.63
2022-12-27T00:18:49.539Z,12.77
2022-12-27T00:21:17.333Z,13.43
2022-12-27T00:23:52.678Z,14.37
2022-12-27T00:26:26.339Z,13.43
2022-12-27T00:28:53.910Z,15.90
2022-12-27T00:31:22.344Z,14.33
2022-12-27T00:33:51.448Z,12.53
2022-12-27T00:36:25.072Z,14.20
2022-12-27T00:38:53.082Z,12.10
2022-12-27T00:41:20.579Z,10.47
2022-12-27T00:43:47.616Z,10.80
2022-12-27T00:46:15.326Z,11.03
2022-12-27T00:48:43.093Z,11.03
2022-12-27T00:51:19.700Z,10.23
2022-12-27T00:53:47.410Z,8.83
2022-12-27T00:56:17.167Z,8.80
2022-12-27T00:58:44.046Z,9.17
2022-12-27T01:01:20.083Z,9.23
2022-12-27T01:03:47.957Z,9.50
2022-12-27T01:06:17.674Z,9.87
2022-12-27T01:08:45.380Z,9.07
2022-12-27T01:11:13.179Z,10.27
2022-12-27T01:13:40.975Z,9.23
2022-12-27T01:16:20.048Z,9.63
2022-12-27T01:18:48.006Z,10.87
2022-12-27T01:21:18.121Z,10.37
2022-12-27T01:23:46.047Z,9.23
2022-12-27T01:26:18.561Z,8.93
2022-12-27T01:28:46.356Z,8.40
2022-12-27T01:31:16.868Z,8.00
2022-12-27T01:33:44.033Z,9.17
2022-12-27T01:36:15.375Z,8.90
2022-12-27T01:38:43.436Z,9.13
2022-12-27T01:41:48.080Z,10.13
2022-12-27T01:44:40.033Z,9.67
2022-12-27T01:47:33.988Z,9.80
2022-12-27T01:50:25.680Z,10.73
2022-12-27T01:52:59.242Z,11.53
2022-12-27T01:55:49.236Z,11.60
2022-12-27T01:58:26.382Z,12.60
2022-12-27T02:00:54.075Z,16.33
2022-12-27T02:03:35.318Z,14.03
2022-12-27T02:06:04.522Z,13.10
2022-12-27T02:08:55.821Z,11.83
2022-12-27T02:11:46.162Z,11.37
2022-12-27T02:14:15.222Z,11.43
2022-12-27T02:17:06.284Z,10.30
2022-12-27T02:19:42.390Z,11.33
2022-12-27T02:23:09.964Z,11.13
2022-12-27T02:26:05.782Z,10.17
2022-12-27T02:28:53.981Z,10.40
2022-12-27T02:31:45.468Z,11.60
2022-12-27T02:34:24.147Z,12.07
2022-12-27T02:36:54.216Z,11.40
2022-12-27T02:39:24.682Z,12.13
2022-12-27T02:42:12.225Z,12.00
2022-12-27T02:44:57.608Z,12.43
2022-12-27T02:47:44.584Z,13.97
2022-12-27T02:50:33.292Z,12.73
2022-12-27T02:53:23.001Z,10.87
2022-12-27T02:56:27.532Z,11.63
2022-12-27T02:59:36.791Z,8.43
2022-12-27T03:02:43.918Z,8.93
2022-12-27T03:05:19.735Z,8.87
2022-12-27T03:08:22.179Z,8.30
2022-12-27T03:11:21.719Z,8.10
2022-12-27T03:14:16.220Z,7.50
2022-12-27T03:16:55.930Z,9.90
2022-12-27T03:19:51.756Z,8.30
2022-12-27T03:22:41.858Z,8.63
2022-12-27T03:25:28.234Z,8.73
2022-12-27T03:28:20.403Z,10.00
2022-12-27T03:31:12.469Z,8.43
2022-12-27T03:33:41.730Z,8.47
2022-12-27T03:36:42.067Z,8.30
2022-12-27T03:39:30.702Z,8.60
2022-12-27T03:42:24.128Z,8.00
2022-12-27T03:44:51.162Z,10.17
2022-12-27T03:47:39.332Z,9.87
2022-12-27T03:50:16.980Z,8.37
2022-12-27T03:52:52.167Z,9.10
2022-12-27T03:55:19.495Z,9.20
2022-12-27T03:57:46.526Z,8.57
2022-12-27T04:00:14.068Z,8.63
2022-12-27T04:02:41.447Z,7.77
2022-12-27T04:05:08.889Z,9.17
2022-12-27T04:07:35.823Z,9.10
2022-12-27T04:10:21.280Z,8.90
2022-12-27T04:13:06.740Z,7.80
2022-12-27T04:15:51.824Z,8.50
2022-12-27T04:18:36.928Z,8.00
2022-12-27T04:21:22.266Z,7.67
2022-12-27T04:24:07.829Z,7.87
2022-12-27T04:26:53.252Z,7.10
2022-12-27T04:29:38.693Z,7.87
2022-12-27T04:32:24.491Z,7.37
2022-12-27T04:34:51.379Z,7.20
2022-12-27T04:37:19.867Z,6.83
2022-12-27T04:40:06.253Z,6.80
2022-12-27T04:42:52.387Z,8.23
2022-12-27T04:45:38.149Z,7.90
2022-12-27T04:48:24.193Z,7.27
2022-12-27T04:51:09.589Z,7.67
2022-12-27T04:53:54.753Z,7.80
2022-12-27T04:56:21.710Z,7.80
2022-12-27T04:59:07.070Z,8.40
2022-12-27T05:01:52.953Z,8.60
2022-12-27T05:04:19.979Z,9.77
2022-12-27T05:06:46.873Z,9.73
2022-12-27T05:09:32.544Z,9.47
2022-12-27T05:12:19.362Z,9.13
2022-12-27T05:14:47.591Z,8.87
2022-12-27T05:17:14.602Z,8.60
2022-12-27T05:19:41.631Z,9.43
2022-12-27T05:22:27.233Z,10.03
2022-12-27T05:25:12.355Z,8.70
2022-12-27T05:27:39.454Z,10.37
2022-12-27T05:30:06.753Z,8.67
2022-12-27T05:32:33.642Z,10.00
2022-12-27T05:35:00.466Z,9.13
2022-12-27T05:37:27.348Z,10.80
2022-12-27T05:39:54.169Z,11.27
2022-12-27T05:42:21.152Z,12.33
2022-12-27T05:44:48.046Z,12.97
2022-12-27T05:47:14.897Z,14.57
2022-12-27T05:49:41.781Z,12.30
2022-12-27T05:52:08.674Z,13.73
2022-12-27T05:54:35.631Z,13.93
2022-12-27T05:57:02.482Z,15.20
2022-12-27T05:59:29.386Z,13.87
2022-12-27T06:01:56.462Z,14.17
2022-12-27T06:04:23.539Z,13.40
2022-12-27T06:06:50.500Z,14.40
2022-12-27T06:09:17.345Z,13.40
2022-12-27T06:11:44.406Z,14.73
2022-12-27T06:14:11.315Z,13.90
2022-12-27T06:16:38.895Z,12.63
2022-12-27T06:19:05.817Z,16.53
2022-12-27T06:21:32.964Z,16.07
2022-12-27T06:24:00.181Z,16.77
2022-12-27T06:26:31.099Z,18.97
2022-12-27T06:28:59.657Z,16.87
2022-12-27T06:31:30.666Z,13.20
2022-12-27T06:33:57.749Z,14.20
2022-12-27T06:36:30.397Z,13.30
2022-12-27T06:38:58.473Z,13.17
2022-12-27T06:41:25.932Z,11.47
2022-12-27T06:43:58.164Z,10.10
2022-12-27T06:46:25.492Z,11.20
2022-12-27T06:48:52.624Z,14.00
2022-12-27T06:51:21.148Z,17.10
2022-12-27T06:53:49.023Z,15.53
2022-12-27T06:56:19.577Z,18.73
2022-12-27T06:58:47.861Z,18.13
2022-12-27T07:01:18.814Z,18.13
2022-12-27T07:03:53.639Z,16.83
2022-12-27T07:06:22.115Z,15.83
2022-12-27T07:08:50.476Z,15.07
2022-12-27T07:11:19.280Z,16.87
2022-12-27T07:13:51.404Z,15.67
2022-12-27T07:16:22.073Z,16.63
2022-12-27T07:18:50.051Z,18.83
2022-12-27T07:21:24.345Z,17.50
2022-12-27T07:23:51.672Z,17.93
2022-12-27T07:26:30.128Z,37.43
2022-12-27T07:29:01.380Z,31.90
2022-12-27T07:31:31.942Z,24.07
2022-12-27T07:34:01.829Z,20.50
2022-12-27T07:36:33.856Z,19.30
2022-12-27T07:39:00.700Z,18.73
2022-12-27T07:41:27.694Z,17.53
2022-12-27T07:43:54.755Z,20.30
2022-12-27T07:46:24.359Z,25.60
2022-12-27T07:48:57.199Z,27.23
2022-12-27T07:51:25.622Z,27.90
2022-12-27T07:53:53.117Z,24.23
2022-12-27T07:56:26.101Z,23.67
2022-12-27T07:58:55.563Z,18.83
2022-12-27T08:01:24.477Z,19.47
2022-12-27T08:03:52.908Z,15.93
2022-12-27T08:06:29.654Z,14.93
2022-12-27T08:08:59.097Z,13.67
2022-12-27T08:11:30.261Z,10.53
2022-12-27T08:13:58.698Z,13.37
2022-12-27T08:16:27.033Z,11.07
2022-12-27T08:18:54.414Z,9.40
2022-12-27T08:21:21.651Z,9.70
2022-12-27T08:23:48.535Z,12.77
2022-12-27T08:26:15.957Z,12.13
2022-12-27T08:28:43.747Z,14.10
2022-12-27T08:31:13.151Z,11.50
2022-12-27T08:33:41.962Z,11.80
2022-12-27T08:36:36.689Z,11.27
2022-12-27T08:38:58.920Z,11.73
2022-12-27T08:41:26.031Z,10.80
2022-12-27T08:43:52.967Z,8.13
2022-12-27T08:46:20.398Z,9.17
2022-12-27T08:48:51.679Z,9.77
2022-12-27T08:51:31.382Z,11.10
2022-12-27T08:54:00.461Z,9.83
2022-12-27T08:56:27.523Z,10.63
2022-12-27T08:58:54.425Z,8.83
2022-12-27T09:01:21.565Z,8.97
2022-12-27T09:03:48.585Z,9.00
2022-12-27T09:06:19.153Z,10.77
2022-12-27T09:08:47.668Z,11.87
2022-12-27T09:11:33.317Z,9.30
2022-12-27T09:14:05.318Z,9.43
2022-12-27T09:16:36.158Z,7.20
2022-12-27T09:19:03.990Z,8.43
2022-12-27T09:21:32.637Z,8.80
2022-12-27T09:23:59.777Z,8.60
2022-12-27T09:26:29.201Z,9.10
2022-12-27T09:28:57.216Z,7.47
2022-12-27T09:31:25.102Z,7.10
2022-12-27T09:33:53.008Z,6.90
2022-12-27T09:36:22.985Z,6.67
2022-12-27T09:38:52.766Z,6.47
2022-12-27T09:44:29.897Z,6.43
2022-12-27T09:47:04.139Z,5.67
2022-12-27T09:49:39.948Z,6.73
2022-12-27T09:52:06.940Z,7.00
2022-12-27T09:55:05.545Z,8.63
2022-12-27T09:57:44.223Z,8.73
2022-12-27T10:00:34.589Z,9.67
2022-12-27T10:03:06.017Z,9.87
2022-12-27T10:05:37.072Z,6.53
2022-12-27T10:08:39.498Z,5.93
2022-12-27T10:11:35.284Z,6.37
2022-12-27T10:14:25.048Z,9.33
2022-12-27T10:17:34.455Z,6.33
2022-12-27T10:20:10.355Z,6.17
2022-12-27T10:22:53.098Z,8.07
2022-12-27T10:25:23.336Z,7.70
2022-12-27T10:28:16.086Z,8.47
2022-12-27T10:30:44.128Z,10.57
2022-12-27T10:33:22.226Z,12.17
2022-12-27T10:35:49.285Z,15.20
2022-12-27T10:38:16.188Z,6.00
2022-12-27T10:41:11.709Z,7.73
2022-12-27T10:43:44.434Z,9.40
2022-12-27T10:46:19.410Z,8.13
2022-12-27T10:49:21.796Z,7.30
2022-12-27T10:51:51.895Z,7.63
2022-12-27T10:54:28.962Z,6.43
2022-12-27T10:57:19.188Z,7.07
2022-12-27T11:00:08.351Z,11.93
2022-12-27T11:02:48.398Z,9.57
2022-12-27T11:05:24.663Z,10.47
2022-12-27T11:07:52.514Z,10.83
2022-12-27T11:10:26.484Z,12.77
2022-12-27T11:12:57.196Z,8.90
2022-12-27T11:15:25.674Z,9.73
2022-12-27T11:17:56.009Z,9.43
2022-12-27T11:20:33.302Z,11.87
2022-12-27T11:23:33.837Z,13.33
2022-12-27T11:26:06.865Z,16.33
2022-12-27T11:28:42.067Z,12.33
2022-12-27T11:31:16.959Z,9.63
2022-12-27T11:33:52.134Z,7.00
2022-12-27T11:36:34.437Z,7.20
2022-12-27T11:39:02.063Z,6.83
2022-12-27T11:41:46.601Z,7.77
2022-12-27T11:44:29.643Z,7.30
2022-12-27T11:47:03.935Z,8.80
2022-12-27T11:49:58.799Z,6.33
2022-12-27T11:52:51.219Z,4.30
2022-12-27T11:55:27.315Z,4.87
2022-12-27T11:58:26.539Z,5.47
2022-12-27T12:01:11.164Z,5.37
2022-12-27T12:04:06.243Z,5.10
2022-12-27T12:06:54.987Z,4.40
2022-12-27T12:09:39.589Z,5.40
2022-12-27T12:12:29.360Z,4.87
2022-12-27T12:14:59.150Z,4.30
2022-12-27T12:17:35.581Z,4.97
2022-12-27T12:20:39.172Z,4.80
2022-12-27T12:23:10.481Z,4.60
2022-12-27T12:25:40.404Z,3.93
2022-12-27T12:28:56.205Z,4.57
2022-12-27T12:31:28.756Z,4.47
2022-12-27T12:33:58.413Z,4.70
2022-12-27T12:36:28.354Z,6.83
2022-12-27T12:38:58.486Z,6.17
2022-12-27T12:41:44.688Z,5.63
2022-12-27T12:44:29.971Z,5.40
2022-12-27T12:47:04.994Z,7.17
2022-12-27T12:49:51.098Z,7.53
2022-12-27T12:52:51.289Z,6.93
2022-12-27T12:55:26.937Z,6.00
2022-12-27T12:57:53.839Z,7.10
2022-12-27T13:00:54.847Z,7.97
2022-12-27T13:03:37.141Z,8.13
2022-12-27T13:06:28.164Z,7.97
2022-12-27T13:09:21.464Z,7.40
2022-12-27T13:12:16.218Z,5.97
2022-12-27T13:14:45.904Z,5.03
2022-12-27T13:17:15.774Z,3.53
2022-12-27T13:20:10.498Z,3.93
2022-12-27T13:22:47.655Z,3.97
2022-12-27T13:25:41.464Z,3.70
2022-12-27T13:28:26.938Z,4.20
2022-12-27T13:31:28.071Z,4.10
2022-12-27T13:34:19.603Z,4.13
2022-12-27T13:37:06.652Z,5.30
2022-12-27T13:40:28.652Z,4.00
2022-12-27T13:43:23.063Z,4.30
2022-12-27T13:46:12.817Z,4.20
2022-12-27T13:48:51.578Z,3.07
2022-12-27T13:51:21.428Z,3.40
2022-12-27T13:53:50.988Z,3.67
2022-12-27T13:59:35.049Z,3.50
2022-12-27T14:02:43.538Z,3.10
2022-12-27T14:05:29.159Z,3.37
2022-12-27T14:08:23.688Z,3.23
2022-12-27T14:10:58.684Z,3.50
2022-12-27T14:13:41.666Z,4.20
2022-12-27T14:16:33.577Z,3.60
2022-12-27T14:19:00.783Z,3.83
2022-12-27T14:21:52.870Z,3.73
2022-12-27T14:24:34.930Z,3.70
2022-12-27T14:27:29.686Z,4.27
2022-12-27T14:30:05.754Z,4.10
2022-12-27T14:33:09.966Z,3.90
2022-12-27T14:36:05.900Z,3.13
2022-12-27T14:38:54.003Z,3.83
2022-12-27T14:41:48.804Z,3.63
2022-12-27T14:44:52.534Z,3.70
2022-12-27T14:47:55.763Z,3.47
2022-12-27T14:50:44.161Z,4.27
2022-12-27T14:53:39.536Z,3.57
2022-12-27T14:56:25.227Z,3.50
2022-12-27T14:58:57.992Z,3.33
2022-12-27T15:01:48.525Z,3.47
2022-12-27T15:04:30.792Z,3.33
2022-12-27T15:07:35.252Z,2.90
2022-12-27T15:10:18.411Z,2.70
2022-12-27T15:13:01.671Z,2.63
2022-12-27T15:15:39.200Z,2.57
2022-12-27T15:18:36.997Z,2.30
2022-12-27T15:21:26.267Z,2.40
2022-12-27T15:24:22.886Z,2.67
2022-12-27T15:26:55.264Z,3.00
2022-12-27T15:29:41.087Z,2.60
2022-12-27T15:32:26.600Z,2.43
2022-12-27T15:35:05.493Z,2.40
2022-12-27T15:38:31.966Z,2.50
2022-12-27T15:41:13.926Z,2.93
2022-12-27T15:43:47.148Z,3.23
2022-12-27T15:46:45.998Z,3.10
2022-12-27T15:49:27.403Z,4.50
2022-12-27T15:52:15.742Z,2.30
2022-12-27T15:55:10.831Z,2.10
2022-12-27T15:57:59.070Z,1.37
2022-12-27T16:00:33.563Z,2.30
2022-12-27T16:03:04.031Z,2.30
2022-12-27T16:05:46.239Z,2.00
2022-12-27T16:08:38.958Z,1.93
2022-12-27T16:11:09.777Z,2.50
2022-12-27T16:13:44.252Z,2.10
2022-12-27T16:16:32.646Z,3.20
2022-12-27T16:19:49.206Z,2.17
2022-12-27T16:22:30.161Z,1.93
2022-12-27T16:24:58.247Z,2.00
2022-12-27T16:27:32.409Z,1.97
2022-12-27T16:29:59.905Z,2.10
2022-12-27T16:32:28.539Z,2.30
2022-12-27T16:35:11.234Z,2.80
2022-12-27T16:37:45.414Z,2.20
2022-12-27T16:40:21.125Z,3.23
2022-12-27T16:42:54.157Z,2.03
2022-12-27T16:45:32.096Z,2.20
2022-12-27T16:48:39.173Z,3.10
2022-12-27T16:51:15.007Z,2.40
2022-12-27T16:54:16.702Z,2.10
2022-12-27T16:56:48.203Z,4.00
2022-12-27T16:59:52.652Z,4.17
2022-12-27T17:02:42.087Z,3.90
2022-12-27T17:05:34.424Z,4.10
2022-12-27T17:08:01.361Z,3.33
2022-12-27T17:10:28.301Z,3.80
2022-12-27T17:13:16.717Z,3.33
2022-12-27T17:16:23.073Z,12.10
2022-12-27T17:19:04.358Z,9.73
2022-12-27T17:21:35.916Z,2.13
2022-12-27T17:24:21.205Z,2.30
2022-12-27T17:27:06.944Z,3.27
2022-12-27T17:29:55.523Z,2.70
2022-12-27T17:32:40.459Z,2.13
2022-12-27T17:35:28.853Z,2.93
2022-12-27T17:38:09.187Z,2.07
2022-12-27T17:40:43.406Z,1.80
2022-12-27T17:44:01.330Z,2.20
2022-12-27T17:47:34.524Z,2.23
2022-12-27T17:50:03.828Z,2.57
2022-12-27T17:52:49.793Z,1.90
2022-12-27T17:55:53.241Z,2.30
2022-12-27T17:58:20.151Z,3.63
2022-12-27T18:01:00.160Z,3.30
2022-12-27T18:03:37.123Z,2.37
2022-12-27T18:06:04.558Z,1.60
2022-12-27T18:08:34.276Z,1.43
2022-12-27T18:11:03.643Z,1.67
2022-12-27T18:13:35.336Z,1.50
2022-12-27T18:16:14.346Z,1.43
2022-12-27T18:18:45.499Z,1.83
2022-12-27T18:21:25.652Z,2.97
2022-12-27T18:23:54.010Z,2.93
2022-12-27T18:26:31.611Z,2.50
2022-12-27T18:28:59.126Z,2.20
2022-12-27T18:31:33.943Z,2.40
2022-12-27T18:34:07.064Z,2.23
2022-12-27T18:36:48.078Z,2.00
2022-12-27T18:39:38.858Z,1.80
2022-12-27T18:42:39.916Z,2.37
2022-12-27T18:45:28.882Z,1.93
2022-12-27T18:47:59.778Z,2.47
2022-12-27T18:50:29.683Z,2.13
2022-12-27T18:53:08.069Z,2.00
2022-12-27T18:55:35.220Z,2.00
2022-12-27T18:58:20.417Z,1.70
2022-12-27T19:00:52.728Z,1.90
2022-12-27T19:03:20.973Z,1.77
2022-12-27T19:06:12.681Z,1.90
2022-12-27T19:08:39.544Z,1.60
2022-12-27T19:11:07.926Z,2.40
2022-12-27T19:13:43.468Z,2.33
2022-12-27T19:16:22.113Z,2.93
2022-12-27T19:19:03.513Z,2.17
2022-12-27T19:21:39.878Z,1.70
2022-12-27T19:24:27.545Z,1.60
2022-12-27T19:26:56.796Z,1.67
2022-12-27T19:29:27.283Z,2.10
2022-12-27T19:32:01.461Z,1.53
2022-12-27T19:34:48.169Z,1.70
2022-12-27T19:37:15.231Z,1.50
2022-12-27T19:39:43.867Z,1.40
2022-12-27T19:42:34.864Z,1.50
2022-12-27T19:45:02.017Z,1.60
2022-12-27T19:47:32.246Z,1.47
2022-12-27T19:49:59.104Z,1.50
2022-12-27T19:52:27.340Z,1.57
2022-12-27T19:55:01.669Z,1.13
2022-12-27T19:57:30.630Z,1.70
2022-12-27T19:59:57.469Z,1.70
2022-12-27T20:02:24.630Z,1.83
2022-12-27T20:04:52.201Z,1.50
2022-12-27T20:07:24.684Z,1.33
2022-12-27T20:09:51.649Z,1.50
2022-12-27T20:12:19.659Z,1.50
2022-12-27T20:14:47.557Z,1.37
2022-12-27T20:17:14.542Z,1.30
2022-12-27T20:19:41.644Z,1.30
2022-12-27T20:22:08.546Z,1.47
2022-12-27T20:24:37.009Z,1.67
2022-12-27T20:27:04.816Z,1.60
2022-12-27T20:29:32.108Z,1.70
2022-12-27T20:31:59.251Z,1.50
2022-12-27T20:34:26.257Z,1.50
2022-12-27T20:36:55.349Z,1.60
2022-12-27T20:39:22.350Z,1.70
2022-12-27T20:41:49.342Z,1.80
2022-12-27T20:44:16.171Z,1.67
2022-12-27T20:46:43.134Z,1.90
2022-12-27T20:49:10.360Z,1.77
2022-12-27T20:51:37.527Z,1.67
2022-12-27T20:54:05.019Z,1.40
2022-12-27T20:56:32.285Z,2.03
2022-12-27T20:58:59.146Z,1.63
2022-12-27T21:01:26.668Z,1.70
2022-12-27T21:03:56.087Z,1.77
2022-12-27T21:06:25.530Z,1.70
2022-12-27T21:08:57.220Z,1.73
2022-12-27T21:11:29.219Z,1.83
2022-12-27T21:13:56.196Z,2.00
2022-12-27T21:16:26.144Z,2.00
2022-12-27T21:18:54.590Z,1.70
2022-12-27T21:21:26.886Z,1.67
2022-12-27T21:23:55.128Z,1.57
2022-12-27T21:26:25.371Z,1.67
2022-12-27T21:28:53.048Z,1.90
2022-12-27T21:31:20.184Z,1.80
2022-12-27T21:33:48.087Z,1.90
2022-12-27T21:36:18.180Z,1.60
2022-12-27T21:38:45.650Z,1.90
2022-12-27T21:41:16.695Z,1.77
2022-12-27T21:43:44.895Z,1.60
2022-12-27T21:46:15.954Z,2.00
2022-12-27T21:48:43.744Z,1.60
2022-12-27T21:51:13.510Z,1.80
2022-12-27T21:53:41.543Z,1.70
2022-12-27T21:56:09.867Z,1.60
2022-12-27T21:58:38.393Z,1.80
2022-12-27T22:01:09.337Z,1.60
2022-12-27T22:03:39.211Z,1.60
2022-12-27T22:06:46.367Z,1.70
2022-12-27T22:09:13.978Z,1.90
2022-12-27T22:11:40.898Z,2.00
2022-12-27T22:14:07.954Z,1.57
2022-12-27T22:16:37.443Z,1.70
2022-12-27T22:19:10.073Z,1.73
2022-12-27T22:21:38.761Z,1.70
2022-12-27T22:24:06.288Z,1.87
2022-12-27T22:26:37.504Z,1.83
2022-12-27T22:29:05.786Z,1.90
2022-12-27T22:31:36.702Z,2.10
2022-12-27T22:34:05.219Z,1.50
2022-12-27T22:36:32.105Z,1.50
2022-12-27T22:39:00.145Z,1.50
2022-12-27T22:41:32.118Z,1.70
2022-12-27T22:44:04.578Z,1.80
2022-12-27T22:46:58.721Z,1.90
2022-12-27T22:49:18.983Z,1.70
2022-12-27T22:51:46.290Z,2.07
2022-12-27T22:54:13.256Z,2.30
2022-12-27T22:56:42.227Z,2.13
2022-12-27T22:59:11.682Z,2.40
2022-12-27T23:01:39.745Z,2.47
2022-12-27T23:04:08.842Z,1.97
2022-12-27T23:06:36.849Z,1.90
2022-12-27T23:09:04.656Z,2.00
2022-12-27T23:11:34.797Z,2.80
2022-12-27T23:14:05.120Z,2.00
2022-12-27T23:16:43.647Z,1.50
2022-12-27T23:19:11.420Z,1.57
2022-12-27T23:21:39.843Z,1.50
2022-12-27T23:24:07.374Z,1.70
2022-12-27T23:26:34.315Z,1.60
2022-12-27T23:29:01.490Z,1.40
2022-12-27T23:31:28.920Z,1.73
2022-12-27T23:33:56.236Z,1.57
2022-12-27T23:36:23.590Z,1.60
2022-12-27T23:38:51.050Z,1.53
2022-12-27T23:41:23.163Z,1.60
2022-12-27T23:43:52.898Z,1.80
2022-12-27T23:46:29.773Z,1.70
2022-12-27T23:48:58.680Z,1.80
2022-12-27T23:51:26.155Z,1.93
2022-12-27T23:53:53.277Z,1.83
2022-12-27T23:56:29.596Z,2.80
2022-12-27T23:58:58.570Z,2.20
